Time;durP1;ratioP1;P1;durP2;ratioP2;P2;SDS_P1;SDS_P2;PMS_P1;PMS_P2;Temp;Humidity;BMP_temperature;BMP_pressure;BME280_temperature;BME280_humidity;BME280_pressure;Samples;Min_cycle;Max_cycle;Signal;HPM_P1;HPM_P2
2021/01/28 00:02:26;;;;;;;10.88;5.10;;;;;;;-1.13;73.66;98980.00;510748;1102;113763;-67
2021/01/28 00:12:31;;;;;;;12.10;5.83;;;;;;;-1.10;73.84;98971.31;510547;1100;115181;-66
2021/01/28 00:22:36;;;;;;;9.47;4.63;;;;;;;-1.11;73.59;98967.91;510689;1102;115385;-65
2021/01/28 00:32:40;;;;;;;9.35;5.65;;;;;;;-1.11;73.75;98962.76;510600;1101;113771;-66
2021/01/28 00:42:44;;;;;;;12.57;6.73;;;;;;;-1.16;73.47;98959.44;510523;1102;115382;-67
2021/01/28 00:52:48;;;;;;;11.57;5.53;;;;;;;-1.22;73.26;98954.47;510699;1102;114279;-66
2021/01/28 01:02:52;;;;;;;13.00;6.83;;;;;;;-1.18;73.71;98944.04;510764;1102;114161;-67
2021/01/28 01:12:57;;;;;;;12.17;6.90;;;;;;;-1.25;74.08;98929.62;510622;1102;114270;-67
2021/01/28 01:23:01;;;;;;;11.70;7.03;;;;;;;-1.39;73.95;98911.94;510249;1101;114315;-67
2021/01/28 01:33:06;;;;;;;17.57;9.13;;;;;;;-1.60;74.35;98913.34;510087;1102;114395;-71
2021/01/28 01:43:13;;;;;;;15.60;8.60;;;;;;;-1.70;74.21;98900.70;510814;1102;114794;-70
2021/01/28 01:53:22;;;;;;;17.67;10.55;;;;;;;-1.97;74.43;98884.20;510924;1102;114946;-71
2021/01/28 02:03:31;;;;;;;18.07;11.53;;;;;;;-2.29;74.69;98884.08;511042;1101;114114;-70
2021/01/28 02:13:36;;;;;;;30.80;15.80;;;;;;;-2.67;74.65;98866.05;511161;1101;114070;-70
2021/01/28 02:23:55;;;;;;;26.10;14.50;;;;;;;-2.91;74.99;98843.45;511076;1102;114121;-70
2021/01/28 02:34:01;;;;;;;21.30;14.00;;;;;;;-3.14;75.44;98840.48;511172;1102;114602;-71
2021/01/28 02:44:06;;;;;;;22.27;14.07;;;;;;;-3.28;75.29;98821.95;511060;1101;115069;-70
2021/01/28 02:54:11;;;;;;;24.77;14.37;;;;;;;-3.44;75.74;98824.80;510999;1100;114997;-71
2021/01/28 03:04:15;;;;;;;17.27;10.30;;;;;;;-3.28;76.41;98824.52;510947;1102;114224;-71
2021/01/28 03:14:19;;;;;;;16.80;11.05;;;;;;;-3.10;76.17;98795.05;510814;1102;114175;-70
2021/01/28 03:24:24;;;;;;;11.95;8.10;;;;;;;-2.96;75.38;98793.02;511649;1102;115213;-70
2021/01/28 03:34:28;;;;;;;16.85;8.65;;;;;;;-2.83;75.31;98792.75;511249;1101;114972;-71
2021/01/28 03:44:33;;;;;;;15.70;10.07;;;;;;;-2.80;75.59;98782.39;510898;1102;113984;-71
2021/01/28 03:54:37;;;;;;;13.77;9.23;;;;;;;-2.76;75.43;98778.89;510947;1102;114988;-70
2021/01/28 04:04:41;;;;;;;17.67;10.00;;;;;;;-2.64;75.43;98774.35;510878;1101;114927;-70
2021/01/28 04:14:45;;;;;;;17.60;10.65;;;;;;;-2.56;74.94;98762.14;510963;1102;114152;-69
2021/01/28 04:24:49;;;;;;;16.00;8.90;;;;;;;-2.58;75.48;98733.92;510878;1102;114477;-68
2021/01/28 04:34:54;;;;;;;28.37;10.43;;;;;;;-2.82;75.30;98696.80;511035;1102;114030;-69
2021/01/28 04:44:58;;;;;;;21.53;11.37;;;;;;;-3.18;75.56;98682.19;510996;1102;114455;-70
2021/01/28 04:55:03;;;;;;;19.93;12.37;;;;;;;-3.46;75.45;98669.97;510930;1102;114955;-70
2021/01/28 05:05:09;;;;;;;20.33;12.27;;;;;;;-3.67;76.61;98668.72;511043;1101;114084;-70
2021/01/28 05:15:27;;;;;;;20.27;12.10;;;;;;;-3.85;76.59;98651.98;510971;1102;115319;-69
2021/01/28 05:25:38;;;;;;;23.13;12.07;;;;;;;-3.98;76.89;98647.10;511079;1101;114893;-70
2021/01/28 05:35:41;;;;;;;27.90;13.83;;;;;;;-4.11;76.76;98651.61;511036;1102;114803;-70
2021/01/28 05:45:45;;;;;;;31.73;15.30;;;;;;;-4.25;77.61;98636.48;510781;1102;114612;-70
2021/01/28 05:55:50;;;;;;;25.27;15.50;;;;;;;-4.36;78.01;98621.33;510844;1102;115549;-69
2021/01/28 06:06:08;;;;;;;22.23;13.43;;;;;;;-4.46;77.44;98603.57;511123;1102;114580;-69
2021/01/28 06:16:20;;;;;;;21.43;14.03;;;;;;;-4.56;78.50;98587.53;510998;1102;114695;-70
2021/01/28 06:26:39;;;;;;;28.60;15.63;;;;;;;-4.59;78.99;98570.49;510775;1102;114913;-72
2021/01/28 06:36:58;;;;;;;22.20;14.40;;;;;;;-4.57;78.54;98557.66;510875;1102;115084;-71
2021/01/28 06:47:06;;;;;;;18.83;12.50;;;;;;;-4.48;78.16;98538.70;510869;1102;114895;-72
2021/01/28 06:57:21;;;;;;;25.30;12.27;;;;;;;-4.20;77.76;98526.16;510879;1102;114578;-71
2021/01/28 07:07:26;;;;;;;28.57;14.67;;;;;;;-3.75;78.59;98514.09;510654;1102;114705;-70
2021/01/28 07:17:36;;;;;;;29.30;15.53;;;;;;;-3.07;77.08;98519.29;510812;1102;115220;-70
2021/01/28 07:27:59;;;;;;;24.97;15.33;;;;;;;-0.21;75.71;98488.06;509909;1102;114621;-60
2021/01/28 07:38:31;;;;;;;24.87;16.03;;;;;;;4.10;71.12;98486.49;516591;1100;114578;-57
2021/01/28 07:48:35;;;;;;;24.90;15.80;;;;;;;5.64;66.31;98458.55;511035;1102;114495;-60
2021/01/28 07:58:53;;;;;;;23.43;16.73;;;;;;;4.27;65.41;98454.37;510942;1102;114122;-61
2021/01/28 08:09:06;;;;;;;27.70;16.13;;;;;;;3.66;64.80;98443.83;511188;1101;115008;-61
2021/01/28 08:19:15;;;;;;;26.03;17.17;;;;;;;3.65;65.05;98426.58;511298;1102;114007;-61
2021/01/28 08:29:21;;;;;;;32.15;20.77;;;;;;;2.31;64.54;98420.44;510986;1102;114982;-64
2021/01/28 08:39:28;;;;;;;26.77;17.67;;;;;;;1.31;65.56;98410.42;510958;1102;176987;-66
2021/01/28 08:49:33;;;;;;;27.95;18.32;;;;;;;0.78;65.68;98389.44;510748;1102;114017;-65
2021/01/28 08:59:44;;;;;;;33.50;18.30;;;;;;;0.37;66.04;98367.91;510990;1102;114106;-65
2021/01/28 09:10:03;;;;;;;34.57;17.57;;;;;;;0.32;67.01;98356.91;510616;1102;114009;-63
2021/01/28 09:20:24;;;;;;;35.97;19.50;;;;;;;0.33;67.18;98340.51;511008;1102;114000;-65
2021/01/28 09:30:33;;;;;;;32.95;18.90;;;;;;;0.35;67.31;98330.98;510928;1102;114109;-63
2021/01/28 09:40:39;;;;;;;30.07;17.97;;;;;;;0.23;66.57;98313.39;511046;1102;114010;-65
2021/01/28 09:50:43;;;;;;;31.15;18.30;;;;;;;0.27;67.10;98289.97;510924;1102;113910;-68
2021/01/28 10:00:47;;;;;;;30.60;17.10;;;;;;;0.27;67.00;98266.73;511045;1102;115489;-67
2021/01/28 10:10:52;;;;;;;33.07;18.90;;;;;;;0.45;67.69;98258.24;511058;1101;113989;-69
2021/01/28 10:20:56;;;;;;;36.60;18.37;;;;;;;0.35;66.78;98244.91;510949;1102;114549;-65
2021/01/28 10:31:02;;;;;;;33.83;19.13;;;;;;;0.17;67.81;98238.80;511111;1101;113912;-77
2021/01/28 10:41:07;;;;;;;37.05;21.65;;;;;;;0.06;67.73;98223.77;511159;1101;114006;-63
2021/01/28 10:51:11;;;;;;;30.70;17.80;;;;;;;-0.10;68.75;98219.27;511436;1102;114693;-68
2021/01/28 11:01:15;;;;;;;31.30;17.75;;;;;;;-0.25;69.33;98200.11;511216;1099;114582;-62
2021/01/28 11:11:20;;;;;;;29.10;18.77;;;;;;;-0.32;70.78;98190.97;510872;1102;114575;-60
2021/01/28 11:21:24;;;;;;;30.67;20.23;;;;;;;-0.31;70.82;98164.27;511116;1102;114079;-61
2021/01/28 11:31:28;;;;;;;33.07;20.17;;;;;;;-0.29;71.72;98146.98;511256;1100;115406;-66
2021/01/28 11:41:31;;;;;;;33.07;20.23;;;;;;;-0.32;72.67;98124.72;511114;1102;114099;-63
2021/01/28 11:51:35;;;;;;;33.50;20.47;;;;;;;-0.26;73.71;98117.64;511072;1102;114747;-64
2021/01/28 12:01:41;;;;;;;39.50;21.17;;;;;;;-0.30;73.79;98111.77;511042;1102;115510;-62
2021/01/28 12:11:45;;;;;;;27.23;18.30;;;;;;;-0.33;75.09;98101.59;511301;1102;115474;-64
2021/01/28 12:21:49;;;;;;;30.05;19.25;;;;;;;-0.47;75.72;98089.28;511107;1101;114601;-63
2021/01/28 12:31:53;;;;;;;31.83;19.77;;;;;;;-0.48;75.19;98080.70;510992;1102;114555;-65
2021/01/28 12:41:58;;;;;;;31.60;20.80;;;;;;;-0.49;76.49;98073.05;510945;1102;114451;-64
2021/01/28 12:52:02;;;;;;;31.63;21.23;;;;;;;-0.58;77.49;98058.79;511391;1101;114155;-63
2021/01/28 13:02:06;;;;;;;37.23;21.27;;;;;;;-0.53;77.95;98043.97;510878;1102;115327;-63
2021/01/28 13:12:11;;;;;;;37.77;24.83;;;;;;;-0.46;77.94;98031.64;510910;1102;115852;-62
2021/01/28 13:22:15;;;;;;;43.27;26.57;;;;;;;-0.34;78.23;98013.04;510952;1102;115832;-60
2021/01/28 13:32:19;;;;;;;39.73;24.27;;;;;;;-0.39;79.09;98014.16;511146;1102;114232;-61
2021/01/28 13:42:24;;;;;;;35.17;22.67;;;;;;;-0.52;79.41;97991.49;510933;1102;115228;-61
2021/01/28 13:52:28;;;;;;;35.07;21.13;;;;;;;-0.59;79.28;97970.30;510869;1101;115163;-59
2021/01/28 14:02:32;;;;;;;33.77;23.43;;;;;;;-0.57;79.61;97957.36;510892;1101;114275;-60
2021/01/28 14:12:39;;;;;;;28.33;18.93;;;;;;;-0.59;79.92;97944.52;510906;1102;114213;-58
2021/01/28 14:22:43;;;;;;;32.30;20.40;;;;;;;-0.57;80.48;97937.55;511191;1100;114940;-59
2021/01/28 14:32:47;;;;;;;27.33;20.10;;;;;;;-0.55;80.79;97916.86;511070;1102;115210;-56
2021/01/28 14:42:51;;;;;;;33.63;21.53;;;;;;;-0.50;80.21;97916.66;511205;1102;114726;-58
2021/01/28 14:52:56;;;;;;;30.97;20.93;;;;;;;-0.51;81.23;97905.48;511087;1102;114301;-58
2021/01/28 15:03:01;;;;;;;27.07;17.47;;;;;;;-0.51;81.66;97900.33;511139;1102;114515;-59
2021/01/28 15:13:05;;;;;;;26.00;16.97;;;;;;;-0.53;81.81;97872.94;510924;1102;114342;-63
2021/01/28 15:23:09;;;;;;;33.10;21.10;;;;;;;-0.53;82.10;97867.78;511071;1102;114413;-63
2021/01/28 15:33:13;;;;;;;28.40;17.03;;;;;;;-0.60;81.48;97852.61;510901;1102;114104;-63
2021/01/28 15:43:19;;;;;;;28.43;17.73;;;;;;;-0.61;82.51;97855.25;510987;1102;114871;-58
2021/01/28 15:53:24;;;;;;;29.87;18.10;;;;;;;-0.65;82.30;97851.16;510934;1101;114148;-58
2021/01/28 16:03:28;;;;;;;27.40;18.97;;;;;;;-0.63;82.53;97839.02;510963;1101;114528;-61
2021/01/28 16:13:32;;;;;;;32.17;21.57;;;;;;;-0.69;82.23;97842.72;510545;1102;114178;-59
2021/01/28 16:23:49;;;;;;;48.73;32.77;;;;;;;-0.62;82.93;97836.39;510821;1102;114325;-58
2021/01/28 16:33:54;;;;;;;44.47;29.77;;;;;;;-0.60;82.83;97836.30;510715;1102;114234;-60
2021/01/28 16:43:58;;;;;;;38.60;23.27;;;;;;;-0.54;82.72;97832.59;501867;1102;10001488;-62
2021/01/28 16:54:02;;;;;;;29.43;20.53;;;;;;;-0.47;83.14;97827.07;510246;1101;115440;-59
2021/01/28 17:04:06;;;;;;;32.13;20.87;;;;;;;-0.47;83.06;97837.39;511893;1102;114538;-61
2021/01/28 17:14:10;;;;;;;30.20;20.73;;;;;;;-0.48;83.15;97833.14;510473;1102;114140;-56
2021/01/28 17:24:15;;;;;;;32.90;23.47;;;;;;;-0.32;83.74;97835.01;510193;1102;114242;-56
2021/01/28 17:34:21;;;;;;;;;;;;;;;-0.37;82.69;97827.48;510274;1102;114711;-59
2021/01/28 17:44:26;;;;;;;35.77;24.27;;;;;;;-0.37;83.81;97821.48;510849;1101;100634;-61
2021/01/28 17:54:31;;;;;;;34.40;22.80;;;;;;;-0.40;83.47;97819.91;510628;1100;114891;-58
2021/01/28 18:04:35;;;;;;;35.47;22.47;;;;;;;-0.28;83.59;97813.30;510523;1101;114595;-60
2021/01/28 18:14:39;;;;;;;35.17;22.67;;;;;;;-0.26;83.58;97813.25;510776;1102;114199;-60
2021/01/28 18:24:45;;;;;;;33.03;21.83;;;;;;;-0.33;83.42;97810.95;510593;1102;114026;-64
2021/01/28 18:34:49;;;;;;;29.30;17.50;;;;;;;-0.45;84.54;97807.23;510534;1102;114955;-59
2021/01/28 18:44:53;;;;;;;30.53;16.87;;;;;;;-0.52;84.51;97799.83;510735;1101;114104;-63
2021/01/28 18:54:57;;;;;;;31.10;19.10;;;;;;;-0.59;83.61;97799.30;510454;1102;114151;-61
2021/01/28 19:05:01;;;;;;;32.17;18.93;;;;;;;-0.80;84.21;97803.72;510770;1102;114172;-62
2021/01/28 19:15:08;;;;;;;30.47;19.73;;;;;;;-0.84;84.71;97805.59;510779;1102;114196;-64
2021/01/28 19:25:14;;;;;;;28.63;16.77;;;;;;;-0.86;84.06;97817.73;484658;1102;10003443;-60
2021/01/28 19:35:21;;;;;;;28.00;19.13;;;;;;;-0.82;83.67;97808.12;510369;1102;115076;-68
2021/01/28 19:45:29;;;;;;;32.50;20.33;;;;;;;-0.90;83.90;97811.88;509806;1102;114496;-68
2021/01/28 19:55:33;;;;;;;27.27;18.67;;;;;;;-1.11;83.56;97805.97;512996;1102;114480;-61
2021/01/28 20:05:38;;;;;;;25.30;15.43;;;;;;;-1.27;83.91;97804.09;510336;1102;114535;-62
2021/01/28 20:15:42;;;;;;;25.92;14.87;;;;;;;-1.36;83.44;97803.64;510409;1102;114079;-59
2021/01/28 20:25:48;;;;;;;21.60;14.27;;;;;;;-1.41;83.45;97814.14;510298;1102;115552;-60
2021/01/28 20:35:52;;;;;;;22.97;14.17;;;;;;;-1.46;83.35;97816.91;510642;1102;114208;-61
2021/01/28 20:45:57;;;;;;;20.60;14.10;;;;;;;-1.48;82.70;97825.62;510666;1101;114550;-61
2021/01/28 20:56:01;;;;;;;19.17;12.73;;;;;;;-1.57;82.97;97834.56;510205;1102;114839;-61
2021/01/28 21:06:06;;;;;;;18.00;11.60;;;;;;;-1.69;82.38;97841.90;509980;1102;115541;-66
2021/01/28 21:16:10;;;;;;;19.90;12.27;;;;;;;-1.88;82.21;97849.55;510866;1102;114823;-63
2021/01/28 21:26:14;;;;;;;19.43;11.87;;;;;;;-2.07;81.59;97836.62;510336;1102;115477;-61
2021/01/28 21:36:18;;;;;;;19.37;8.87;;;;;;;-2.18;81.40;97849.07;510283;1102;114188;-62
2021/01/28 21:46:22;;;;;;;14.70;9.27;;;;;;;-2.56;81.44;97847.11;510367;1102;114573;-68
2021/01/28 21:56:26;;;;;;;16.10;9.77;;;;;;;-2.92;81.48;97843.33;510555;1102;115089;-61
2021/01/28 22:06:31;;;;;;;14.23;9.30;;;;;;;-3.17;81.59;97841.66;510178;1102;114429;-62
2021/01/28 22:16:35;;;;;;;15.90;9.43;;;;;;;-3.39;81.39;97839.86;509898;1102;114896;-62
2021/01/28 22:26:39;;;;;;;14.30;7.90;;;;;;;-3.59;81.29;97843.11;511358;1102;115121;-68
2021/01/28 22:36:43;;;;;;;14.30;7.35;;;;;;;-3.81;81.51;97841.30;510936;1102;113951;-66
2021/01/28 22:46:47;;;;;;;15.23;7.97;;;;;;;-3.98;81.96;97841.86;510355;1101;114738;-66
2021/01/28 22:56:51;;;;;;;17.10;9.07;;;;;;;-4.15;81.44;97844.13;510482;1101;114676;-66
2021/01/28 23:06:55;;;;;;;21.43;10.80;;;;;;;-4.30;82.99;97846.30;510339;1102;115267;-65
2021/01/28 23:17:00;;;;;;;17.83;10.47;;;;;;;-4.43;82.38;97868.90;510544;1101;114870;-65
2021/01/28 23:27:05;;;;;;;18.23;10.23;;;;;;;-4.59;82.52;97881.34;510261;1100;115947;-67
2021/01/28 23:37:10;;;;;;;21.63;10.83;;;;;;;-4.70;82.37;97873.98;510670;1102;116469;-67
2021/01/28 23:47:13;;;;;;;21.10;10.27;;;;;;;-4.88;83.10;97859.15;510438;1102;114638;-66
2021/01/28 23:57:18;;;;;;;21.50;12.17;;;;;;;-5.16;81.84;97854.84;510469;1102;114948;-65
